< < Back
Terminal Aerodrome Forecast


Current Version              Previous Versions:   1  2  3  4  5  6  7  8  9  

Terminal Aerodrome Forecast

202
FTUS42 KILM 210500
TAFILM
TAF
KILM 210539Z 2106/2206 VRB03KT P6SM SCT090 BKN170
     FM211400 29007KT P6SM SCT050
     FM212100 24009KT P6SM SKC
     FM220400 33011KT P6SM SKC=



Latest METAR

394
SAUS70 KWBC 220800
MTRILM
METAR KILM 220753Z AUTO 33011KT 10SM BKN090 14/07 A2989 RMK AO2 SLP121
T01390072


USA.gov is the U.S. government's official web portal to all federal, state and local government web resources and services.